»·PEaware :: N1939W KTRM-KKNB

N1939W :: KTRM-KKNB

FLIGHT INFORMATION

Flight Status: Arrived
Operator: Privately registered:
United States
More flights under this callsign
Pilot: Ralph Falkenberg (3863)
Aircraft: BEECH AIRCRAFT SUPER KING AIR COMMUTER
(BE20)
More flights by this aircraft type
Origin: KTRM Desert Resorts Regl
United States
Destination: KKNB Kanab Mun
United States
More flights between these airports :: More routes between these airports
Route: +CLOWD V514 LYNSY V8 JITKA
File this flight plan on PilotEdge
Remarks: ALPHABET CHALLENGE 10
Altitude:
(Current/Filed)
17,000ft
Speed:
(Current/Filed)
280kts
Departed: 21-Apr-17 11:26 AM
Arrived: 21-Apr-17 12:39 PM
Distance/Time
Traveled:
270nm/1:13
Distance/Time
To Go:
Arrived

Flight Plot

Page will automatically refresh every two minutes.


Map Options




Map Legend


Flown Route
Filed Route
Departure Airport
Arrival Airport
Navaid (VOR, NDB)
Fix

Horizontal Profiles

Position Reports

Time Latitude Longitude Heading Altitude Ground
Speed
21-Apr-17 11:06 33.634398 -116.159166 92 -110ft 0kts
21-Apr-17 11:07 33.634398 -116.159166 92 -110ft 0kts
21-Apr-17 11:08 33.634398 -116.159166 92 -110ft 0kts
21-Apr-17 11:09 33.634398 -116.159166 92 -110ft 0kts
21-Apr-17 11:10 33.634398 -116.159166 92 -110ft 0kts
21-Apr-17 11:11 33.634398 -116.159166 92 -110ft 0kts
21-Apr-17 11:12 33.634398 -116.159166 92 -110ft 0kts
21-Apr-17 11:13 33.634398 -116.159166 92 -110ft 0kts
21-Apr-17 11:14 33.634398 -116.159166 92 -110ft 0kts
21-Apr-17 11:15 33.634398 -116.159166 92 -110ft 0kts
21-Apr-17 11:16 33.634398 -116.159166 92 -110ft 0kts
21-Apr-17 11:17 33.634398 -116.159166 92 -110ft 0kts
21-Apr-17 11:18 33.634398 -116.159166 92 -110ft 0kts
21-Apr-17 11:19 33.634335 -116.159049 129 -110ft 2kts
21-Apr-17 11:20 33.632355 -116.157691 179 -110ft 18kts
21-Apr-17 11:21 33.625375 -116.157718 180 -110ft 27kts
21-Apr-17 11:22 33.619262 -116.157700 179 -110ft 17kts
21-Apr-17 11:23 33.616185 -116.157895 171 -110ft 0kts
21-Apr-17 11:24 33.616185 -116.157895 171 -110ft 0kts
21-Apr-17 11:25 33.616185 -116.157895 171 -110ft 0kts
21-Apr-17 11:26 33.616079 -116.157848 150 -110ft 2kts
21-Apr-17 11:27 33.616066 -116.156503 34 -110ft 7kts
21-Apr-17 11:28 33.640606 -116.155698 359 728ft 192kts
21-Apr-17 11:29 33.704710 -116.143817 46 2133ft 266kts
21-Apr-17 11:30 33.752861 -116.077535 37 3834ft 246kts
21-Apr-17 11:31 33.799411 -116.034772 37 6354ft 190kts
21-Apr-17 11:32 33.842206 -115.995204 37 7774ft 210kts
21-Apr-17 11:33 33.889839 -115.951202 37 7390ft 216kts
21-Apr-17 11:34 33.939028 -115.909830 33 6972ft 212kts
21-Apr-17 11:35 33.985861 -115.872421 33 7154ft 192kts
21-Apr-17 11:36 34.027128 -115.839208 33 8070ft 149kts
21-Apr-17 11:37 34.062300 -115.810516 34 9377ft 187kts
21-Apr-17 11:38 34.110069 -115.771602 36 10414ft 222kts
21-Apr-17 11:39 34.156595 -115.720190 43 11423ft 230kts
21-Apr-17 11:40 34.203334 -115.667639 43 12418ft 230kts
21-Apr-17 11:41 34.249946 -115.615152 43 13413ft 228kts
21-Apr-17 11:42 34.296007 -115.563214 43 14407ft 226kts
21-Apr-17 11:43 34.346236 -115.520568 19 15394ft 223kts
21-Apr-17 11:44 34.404023 -115.495590 19 16386ft 220kts
21-Apr-17 11:45 34.461925 -115.470413 19 17021ft 231kts
21-Apr-17 11:46 34.527925 -115.441577 19 17023ft 269kts
21-Apr-17 11:47 34.598582 -115.410721 19 17020ft 277kts
21-Apr-17 11:48 34.671117 -115.378991 19 17019ft 278kts
21-Apr-17 11:49 34.743618 -115.347221 19 17019ft 278kts
21-Apr-17 11:50 34.816045 -115.315409 19 17019ft 278kts
21-Apr-17 11:51 34.888625 -115.283463 19 17019ft 278kts
21-Apr-17 11:52 34.961325 -115.251399 19 17019ft 278kts
21-Apr-17 11:53 35.033879 -115.219347 19 17019ft 278kts
21-Apr-17 11:54 35.106262 -115.187307 19 17019ft 278kts
21-Apr-17 11:55 35.174031 -115.142516 32 17019ft 278kts
21-Apr-17 11:56 35.238658 -115.091367 32 17019ft 278kts
21-Apr-17 11:57 35.303473 -115.040083 32 17019ft 278kts
21-Apr-17 11:58 35.368289 -114.988692 32 17019ft 278kts
21-Apr-17 11:59 35.433059 -114.937237 32 17019ft 278kts
21-Apr-17 12:00 35.497525 -114.886013 32 17019ft 278kts
21-Apr-17 12:01 35.562220 -114.834797 33 17019ft 278kts
21-Apr-17 12:02 35.626981 -114.783087 33 17019ft 278kts
21-Apr-17 12:03 35.691705 -114.731263 33 17019ft 278kts
21-Apr-17 12:04 35.756204 -114.679496 33 17019ft 278kts
21-Apr-17 12:05 35.820852 -114.627522 33 17019ft 278kts
21-Apr-17 12:06 35.889981 -114.586984 15 17019ft 278kts
21-Apr-17 12:07 35.964250 -114.561304 15 17019ft 278kts
21-Apr-17 12:08 36.038484 -114.535398 15 17019ft 278kts
21-Apr-17 12:09 36.112905 -114.509351 15 17019ft 278kts
21-Apr-17 12:10 36.187023 -114.483359 15 17019ft 278kts
21-Apr-17 12:11 36.261359 -114.457226 15 17019ft 278kts
21-Apr-17 12:12 36.335443 -114.431121 15 17021ft 278kts
21-Apr-17 12:13 36.409813 -114.404882 15 17019ft 278kts
21-Apr-17 12:14 36.484153 -114.378592 15 17019ft 278kts
21-Apr-17 12:15 36.558213 -114.352352 15 17019ft 278kts
21-Apr-17 12:16 36.632331 -114.326045 15 17019ft 278kts
21-Apr-17 12:16 36.694201 -114.304051 15 17019ft 278kts
21-Apr-17 12:18 36.774941 -114.261287 54 17030ft 277kts
21-Apr-17 12:18 36.809208 -114.193221 58 17019ft 278kts
21-Apr-17 12:20 36.855046 -114.096765 66 17007ft 279kts
21-Apr-17 12:20 36.841134 -114.020598 97 17007ft 278kts
21-Apr-17 12:22 36.839844 -113.905042 86 16200ft 292kts
21-Apr-17 12:22 36.843211 -113.820406 87 15536ft 293kts
21-Apr-17 12:24 36.847974 -113.701702 87 14604ft 294kts
21-Apr-17 12:24 36.851395 -113.618154 87 13928ft 283kts
21-Apr-17 12:25 36.855442 -113.521107 87 13126ft 279kts
21-Apr-17 12:26 36.859478 -113.424676 87 12326ft 278kts
21-Apr-17 12:27 36.863535 -113.328395 86 11528ft 278kts
21-Apr-17 12:28 36.867608 -113.232436 86 10732ft 278kts
21-Apr-17 12:29 36.871731 -113.136196 86 9933ft 277kts
21-Apr-17 12:30 36.875886 -113.040072 86 9134ft 277kts
21-Apr-17 12:31 36.880072 -112.943940 86 8335ft 277kts
21-Apr-17 12:32 36.884271 -112.848336 87 7552ft 276kts
21-Apr-17 12:33 36.887203 -112.768797 103 7473ft 187kts
21-Apr-17 12:34 36.869299 -112.715617 114 7506ft 170kts
21-Apr-17 12:35 36.848888 -112.657937 112 7501ft 189kts
21-Apr-17 12:36 36.863291 -112.596475 26 6734ft 221kts
21-Apr-17 12:37 36.919146 -112.574798 10 5895ft 192kts
21-Apr-17 12:38 36.963556 -112.554726 26 5879ft 142kts
21-Apr-17 12:39 36.993406 -112.539304 20 5120ft 112kts
21-Apr-17 12:40 37.008840 -112.531567 48 4872ft 6kts
21-Apr-17 12:41 37.009438 -112.530763 61 4872ft 0kts
21-Apr-17 12:42 37.009438 -112.530763 61 4872ft 0kts
21-Apr-17 12:43 37.009438 -112.530763 61 4872ft 0kts
21-Apr-17 12:44 37.009438 -112.530763 61 4872ft 0kts

Navigation Log

Ident Type
1. KTRM Airport
2. CLOWD Fix
3. TNP Navaid
4. JOTNU Fix
5. ZELMA Fix
6. GFS Navaid
7. LYNSY Fix
8. WINDS Fix
9. ACLAM Fix
10. MEADS Fix
11. MMM Navaid
12. PHYLI Fix
13. JITKA Fix
14. KKNB Airport